Time;durP1;ratioP1;P1;durP2;ratioP2;P2;SDS_P1;SDS_P2;PMS_P1;PMS_P2;Temp;Humidity;BMP_temperature;BMP_pressure;BME280_temperature;BME280_humidity;BME280_pressure;Samples;Min_cycle;Max_cycle;Signal;HPM_P1;HPM_P2
2023/10/14 00:01:07;;;;;;;1.10;1.00;;;22.60;62.50;23.00;99362.00;;;;5003002;27;93058;-68
2023/10/14 00:03:33;;;;;;;1.80;1.23;;;22.70;61.50;23.20;99349.00;;;;5001564;27;93101;-70
2023/10/14 00:06:06;;;;;;;1.55;0.98;;;22.90;60.90;23.30;99351.00;;;;5003525;27;92551;-73
2023/10/14 00:08:39;;;;;;;4.95;1.05;;;23.00;61.00;23.30;99345.00;;;;4983757;27;93112;-69
2023/10/14 00:11:07;;;;;;;2.88;1.33;;;23.00;60.00;23.30;99339.00;;;;5002767;27;93130;-69
2023/10/14 00:13:42;;;;;;;3.00;1.75;;;23.10;59.30;23.40;99350.00;;;;5002073;27;94051;-72
2023/10/14 00:18:55;;;;;;;2.90;0.95;;;23.20;58.90;23.50;99333.00;;;;5000386;27;95784;-70
2023/10/14 00:21:25;;;;;;;2.28;1.08;;;23.30;58.80;23.50;99341.00;;;;5002285;27;93074;-71
2023/10/14 00:23:57;;;;;;;4.38;1.25;;;23.30;58.90;23.50;99341.00;;;;4984940;27;94605;-69
2023/10/14 00:26:24;;;;;;;1.63;1.27;;;23.30;59.00;23.50;99337.00;;;;5000829;27;93196;-71
2023/10/14 00:28:54;;;;;;;3.22;1.13;;;23.30;59.20;23.40;99334.00;;;;5004201;27;94800;-71
2023/10/14 00:31:24;;;;;;;5.45;1.08;;;23.30;59.00;23.40;99337.00;;;;5007358;27;92248;-71
2023/10/14 00:33:52;;;;;;;1.25;1.15;;;23.20;58.80;23.40;99338.00;;;;5003945;27;92687;-70
2023/10/14 00:36:23;;;;;;;4.65;1.75;;;23.20;58.60;23.30;99341.00;;;;4986943;27;93007;-70
2023/10/14 00:38:55;;;;;;;1.52;1.40;;;23.20;59.00;23.30;99340.00;;;;4987436;27;93786;-69
2023/10/14 00:41:28;;;;;;;2.17;1.10;;;23.20;59.10;23.30;99340.00;;;;5002795;27;93009;-69
2023/10/14 00:43:54;;;;;;;0.90;0.77;;;23.10;58.90;23.30;99334.00;;;;5003041;27;93163;-69
2023/10/14 00:46:24;;;;;;;1.25;0.82;;;23.10;58.50;23.30;99339.00;;;;4997612;27;110458;-69
2023/10/14 00:49:00;;;;;;;1.00;0.85;;;23.10;58.80;23.30;99340.00;;;;5003348;27;92909;-68
2023/10/14 00:51:33;;;;;;;1.35;1.13;;;23.10;58.60;23.30;99333.00;;;;5002727;27;93334;-69
2023/10/14 00:54:02;;;;;;;4.57;1.50;;;23.10;58.80;23.20;99330.00;;;;5004621;27;93045;-68
2023/10/14 00:56:31;;;;;;;2.50;1.50;;;23.00;58.50;23.20;99343.00;;;;5001728;27;93365;-70
2023/10/14 00:58:59;;;;;;;3.38;1.13;;;23.00;58.60;23.20;99340.00;;;;5005409;27;93022;-68
2023/10/14 01:01:28;;;;;;;2.45;1.27;;;23.00;58.40;23.20;99345.00;;;;5005380;27;92741;-67
2023/10/14 01:04:03;;;;;;;2.08;1.00;;;23.00;58.50;23.20;99353.00;;;;5000749;27;94220;-68
2023/10/14 01:06:34;;;;;;;3.13;0.90;;;23.00;58.40;23.20;99340.00;;;;4990187;27;95643;-69
2023/10/14 01:09:16;;;;;;;2.17;1.20;;;23.00;58.40;23.20;99344.00;;;;5002933;27;93495;-68
2023/10/14 01:11:42;;;;;;;2.22;1.30;;;23.00;58.50;23.20;99327.00;;;;5002969;27;93022;-69
2023/10/14 01:14:08;;;;;;;2.80;0.93;;;23.00;58.40;23.20;99339.00;;;;5002218;27;92885;-69
2023/10/14 01:16:37;;;;;;;2.40;1.90;;;23.00;58.30;23.20;99328.00;;;;5003647;27;92880;-69
2023/10/14 01:19:03;;;;;;;2.22;1.33;;;23.00;58.30;23.20;99335.00;;;;5000990;27;94694;-70
2023/10/14 01:21:29;;;;;;;1.52;1.02;;;23.00;58.60;23.20;99331.00;;;;5003661;27;94171;-70
2023/10/14 01:23:58;;;;;;;1.38;0.90;;;23.00;58.50;23.20;99325.00;;;;5003816;27;92845;-68
2023/10/14 01:26:25;;;;;;;2.45;1.23;;;23.00;58.70;23.20;99325.00;;;;5000027;27;94236;-67
2023/10/14 01:28:59;;;;;;;1.33;1.17;;;23.00;58.70;23.20;99321.00;;;;5003814;27;94565;-69
2023/10/14 01:32:05;;;;;;;2.28;1.50;;;23.00;58.80;23.10;99322.00;;;;5000533;27;93098;-69
2023/10/14 01:34:41;;;;;;;2.35;1.20;;;22.90;58.70;23.10;99326.00;;;;4979371;27;93128;-68
2023/10/14 01:37:17;;;;;;;3.17;1.20;;;22.90;58.80;23.10;99343.00;;;;5002706;27;94321;-70
2023/10/14 01:39:48;;;;;;;2.35;1.27;;;22.90;58.90;23.10;99319.00;;;;5001472;27;94110;-68
2023/10/14 01:42:19;;;;;;;2.22;1.17;;;22.90;59.40;23.00;99328.00;;;;5000128;27;95328;-69
2023/10/14 01:44:44;;;;;;;4.07;1.70;;;22.80;58.80;23.00;99322.00;;;;5001885;27;93134;-69
2023/10/14 01:47:11;;;;;;;3.33;1.13;;;22.80;58.90;23.00;99313.00;;;;5001915;27;119687;-68
2023/10/14 01:49:37;;;;;;;3.20;1.33;;;22.80;58.70;23.00;99310.00;;;;5002950;27;94010;-68
2023/10/14 01:52:09;;;;;;;2.97;0.77;;;22.80;58.60;23.00;99317.00;;;;5007940;27;93683;-68
2023/10/14 01:54:39;;;;;;;4.13;1.45;;;22.80;58.60;23.00;99297.00;;;;4999791;27;93856;-70
2023/10/14 01:57:11;;;;;;;2.08;1.17;;;22.80;58.80;23.00;99300.00;;;;4998013;27;94505;-69
2023/10/14 01:59:39;;;;;;;1.52;0.80;;;22.80;58.70;23.00;99295.00;;;;5003555;27;94041;-68
2023/10/14 02:02:05;;;;;;;1.02;0.82;;;22.80;58.60;23.00;99292.00;;;;4966979;27;93028;-68
2023/10/14 02:04:31;;;;;;;1.13;0.95;;;22.80;58.70;23.00;99289.00;;;;5004963;27;93153;-70
2023/10/14 02:07:39;;;;;;;1.40;1.30;;;22.80;58.80;23.00;99294.00;;;;5001628;27;123136;-69
2023/10/14 02:09:45;;;;;;;1.48;0.93;;;22.80;59.00;22.90;99294.00;;;;4997372;27;93295;-70
2023/10/14 02:12:12;;;;;;;2.92;1.08;;;22.80;58.80;22.90;99279.00;;;;5005203;27;110688;-69
2023/10/14 02:14:44;;;;;;;1.15;0.90;;;22.70;58.80;22.90;99283.00;;;;5003203;27;94381;-69
2023/10/14 02:17:11;;;;;;;2.75;1.05;;;22.70;59.10;22.90;99277.00;;;;5006318;27;93376;-69
2023/10/14 02:19:37;;;;;;;8.77;1.15;;;22.70;59.30;22.80;99274.00;;;;4983373;27;94216;-70
2023/10/14 02:22:03;;;;;;;2.80;1.45;;;22.70;59.40;22.80;99276.00;;;;5004997;27;109766;-68
2023/10/14 02:24:30;;;;;;;1.33;1.05;;;22.60;59.60;22.80;99261.00;;;;5004973;27;93157;-69
2023/10/14 02:27:14;;;;;;;3.78;1.10;;;22.60;59.50;22.80;99253.00;;;;5007522;27;93468;-68
2023/10/14 02:29:47;;;;;;;1.58;0.90;;;22.60;59.50;22.80;99249.00;;;;5008435;27;93490;-68
2023/10/14 02:32:14;;;;;;;3.28;0.80;;;22.50;60.30;22.70;99240.00;;;;5007976;27;94280;-69
2023/10/14 02:34:40;;;;;;;1.20;1.00;;;22.50;59.60;22.70;99252.00;;;;4994641;27;93050;-68
2023/10/14 02:37:07;;;;;;;1.63;1.17;;;22.50;59.60;22.70;99243.00;;;;4989562;27;110049;-67
2023/10/14 02:39:33;;;;;;;2.90;1.58;;;22.50;59.90;22.70;99238.00;;;;5007651;27;94533;-69
2023/10/14 02:41:59;;;;;;;2.35;1.15;;;22.50;60.00;22.70;99215.00;;;;4995476;27;92970;-67
2023/10/14 02:44:31;;;;;;;2.40;1.23;;;22.50;60.00;22.70;99232.00;;;;5013525;27;94463;-68
2023/10/14 02:47:05;;;;;;;2.13;0.88;;;22.50;60.50;22.70;99231.00;;;;4987362;27;95001;-68
2023/10/14 02:49:40;;;;;;;3.88;1.27;;;22.50;60.40;22.60;99221.00;;;;5008700;27;93511;-68
2023/10/14 02:52:11;;;;;;;1.38;0.98;;;22.50;60.70;22.60;99214.00;;;;5007678;27;93064;-67
2023/10/14 02:54:44;;;;;;;9.15;1.63;;;22.40;60.70;22.60;99206.00;;;;5005111;27;93020;-68
2023/10/14 03:00:09;;;;;;;2.20;1.00;;;22.40;61.40;22.50;99188.00;;;;4985290;27;93106;-69
2023/10/14 03:02:54;;;;;;;1.33;1.23;;;22.40;62.00;22.40;99187.00;;;;5003469;27;92291;-68
2023/10/14 03:08:16;;;;;;;1.45;1.30;;;22.20;62.90;22.30;99177.00;;;;5004210;27;93763;-68
2023/10/14 03:10:45;;;;;;;8.88;1.38;;;22.20;63.20;22.30;99179.00;;;;5005103;27;93917;-68
2023/10/14 03:13:14;;;;;;;3.13;1.40;;;22.20;63.50;22.30;99166.00;;;;5002838;27;93114;-69
2023/10/14 03:15:44;;;;;;;3.35;2.30;;;22.10;63.60;22.30;99171.00;;;;5006560;27;94661;-71
2023/10/14 03:18:18;;;;;;;2.05;1.35;;;22.10;63.80;22.30;99164.00;;;;4991488;27;93291;-71
2023/10/14 03:21:00;;;;;;;1.13;1.02;;;22.10;64.20;22.30;99158.00;;;;5005284;27;93074;-69
2023/10/14 03:23:27;;;;;;;2.83;2.00;;;22.10;64.50;22.20;99151.00;;;;5003120;27;92920;-69
2023/10/14 03:26:12;;;;;;;2.30;1.83;;;22.00;64.50;22.20;99164.00;;;;5007283;27;93288;-69
2023/10/14 03:28:38;;;;;;;6.63;1.77;;;22.00;64.70;22.20;99160.00;;;;4994047;27;93569;-69
2023/10/14 03:31:08;;;;;;;2.20;1.58;;;22.00;64.90;22.30;99145.00;;;;5005218;27;93952;-68
2023/10/14 03:33:42;;;;;;;4.00;1.85;;;22.10;65.00;22.30;99140.00;;;;5004626;27;93142;-67
2023/10/14 03:36:15;;;;;;;2.95;2.00;;;22.10;65.00;22.30;99142.00;;;;5003362;27;93979;-69
2023/10/14 03:38:42;;;;;;;1.23;1.15;;;22.00;65.30;22.30;99144.00;;;;5002148;27;94322;-67
2023/10/14 03:43:54;;;;;;;5.03;2.10;;;22.10;65.60;22.30;99142.00;;;;5006989;27;93323;-69
2023/10/14 03:46:29;;;;;;;5.22;1.17;;;22.10;65.60;22.30;99146.00;;;;5003353;27;92854;-69
2023/10/14 03:48:55;;;;;;;3.55;1.17;;;22.10;65.80;22.30;99158.00;;;;5006379;27;92959;-67
2023/10/14 03:51:25;;;;;;;2.88;1.85;;;22.10;66.10;22.30;99151.00;;;;5001409;27;123432;-69
2023/10/14 03:53:52;;;;;;;2.13;1.52;;;22.10;66.00;22.30;99156.00;;;;5005421;27;92374;-68
2023/10/14 03:56:21;;;;;;;1.98;1.25;;;22.10;66.30;22.30;99152.00;;;;5007226;27;93390;-68
2023/10/14 03:58:49;;;;;;;2.38;1.50;;;22.10;66.20;22.30;99152.00;;;;5005202;27;94982;-68
2023/10/14 04:01:22;;;;;;;2.65;1.65;;;22.10;66.20;22.40;99156.00;;;;4999306;27;94238;-67
2023/10/14 04:03:51;;;;;;;2.28;1.73;;;22.10;66.40;22.40;99157.00;;;;5003568;27;93320;-68
2023/10/14 04:06:21;;;;;;;3.33;1.52;;;22.20;66.60;22.40;99167.00;;;;5005383;27;92972;-67
2023/10/14 04:08:48;;;;;;;5.05;1.70;;;22.10;66.50;22.40;99155.00;;;;5002921;27;94090;-69
2023/10/14 04:11:35;;;;;;;6.63;1.80;;;22.20;66.70;22.40;99154.00;;;;4988385;27;121430;-68
2023/10/14 04:14:04;;;;;;;2.40;1.45;;;22.20;66.70;22.40;99159.00;;;;5008337;27;92965;-68
2023/10/14 04:16:48;;;;;;;2.97;1.90;;;22.20;66.50;22.50;99151.00;;;;5003697;27;92980;-67
2023/10/14 04:19:27;;;;;;;5.82;2.03;;;22.20;66.50;22.50;99153.00;;;;5001405;27;93991;-68
2023/10/14 04:22:16;;;;;;;2.85;1.75;;;22.30;66.50;22.60;99137.00;;;;5000657;27;92958;-71
2023/10/14 04:29:51;;;;;;;6.65;1.98;;;22.40;66.10;22.70;99156.00;;;;5002273;27;93416;-70
2023/10/14 04:32:27;;;;;;;1.70;1.60;;;22.50;66.20;22.70;99164.00;;;;4983795;27;93502;-67
2023/10/14 04:34:56;;;;;;;2.13;1.92;;;22.50;66.60;22.70;99154.00;;;;5002470;27;93143;-69
2023/10/14 04:37:22;;;;;;;2.53;1.60;;;22.50;66.50;22.70;99172.00;;;;5004758;27;92928;-69
2023/10/14 04:39:58;;;;;;;1.45;1.20;;;22.50;66.70;22.70;99178.00;;;;5005515;27;93021;-69
2023/10/14 04:42:37;;;;;;;2.70;1.25;;;22.50;66.90;22.70;99164.00;;;;5003134;27;93453;-69
2023/10/14 04:45:06;;;;;;;3.13;1.95;;;22.50;67.00;22.70;99156.00;;;;5007465;27;92198;-69
2023/10/14 04:47:38;;;;;;;1.75;1.27;;;22.50;67.00;22.70;99170.00;;;;4981636;27;93287;-68
2023/10/14 04:50:21;;;;;;;3.22;1.73;;;22.50;67.40;22.60;99148.00;;;;5006489;27;94537;-69
2023/10/14 04:52:50;;;;;;;4.38;2.08;;;22.50;67.30;22.60;99151.00;;;;4985502;27;93987;-68
2023/10/14 04:58:05;;;;;;;1.38;1.25;;;22.40;67.50;22.50;99149.00;;;;5003055;27;92959;-68
2023/10/14 05:00:33;;;;;;;1.60;1.25;;;22.30;68.50;22.40;99137.00;;;;5003424;27;93961;-67
2023/10/14 05:03:02;;;;;;;3.70;1.52;;;22.30;67.80;22.40;99136.00;;;;5002417;27;93434;-66
2023/10/14 05:05:32;;;;;;;4.65;1.48;;;22.40;68.00;22.40;99139.00;;;;5002516;27;95008;-67
2023/10/14 05:07:59;;;;;;;1.95;1.65;;;22.20;68.20;22.30;99124.00;;;;5004315;27;93870;-67
2023/10/14 05:10:28;;;;;;;3.08;2.38;;;22.20;68.20;22.30;99134.00;;;;5003859;27;92250;-67
2023/10/14 05:12:55;;;;;;;4.35;2.13;;;22.10;68.30;22.30;99132.00;;;;5001423;27;94643;-67
2023/10/14 05:15:22;;;;;;;2.30;1.63;;;22.20;68.20;22.30;99130.00;;;;4987789;27;93085;-66
2023/10/14 05:17:52;;;;;;;3.35;1.67;;;22.10;68.20;22.40;99133.00;;;;5002541;27;94623;-66
2023/10/14 05:20:48;;;;;;;4.68;1.60;;;22.10;68.20;22.40;99141.00;;;;5000544;27;93740;-67
2023/10/14 05:23:19;;;;;;;2.08;1.85;;;22.20;68.40;22.40;99137.00;;;;4999524;27;93681;-69
2023/10/14 05:25:48;;;;;;;3.33;1.80;;;22.20;68.10;22.40;99145.00;;;;5001009;27;93240;-67
2023/10/14 05:28:16;;;;;;;2.83;1.85;;;22.20;68.20;22.40;99167.00;;;;4998356;27;93233;-69
2023/10/14 05:30:46;;;;;;;2.03;1.38;;;22.20;68.10;22.50;99155.00;;;;4999209;27;93452;-69
2023/10/14 05:33:14;;;;;;;2.42;1.40;;;22.30;68.30;22.50;99155.00;;;;4982139;27;95300;-69
2023/10/14 05:35:43;;;;;;;7.93;1.90;;;22.30;68.50;22.50;99162.00;;;;5000149;27;92435;-68
2023/10/14 05:38:14;;;;;;;4.78;1.90;;;22.30;68.60;22.50;99155.00;;;;5003056;27;92957;-68
2023/10/14 05:40:41;;;;;;;2.38;1.63;;;22.20;68.70;22.40;99165.00;;;;5005056;27;93159;-69
2023/10/14 05:43:07;;;;;;;5.80;2.25;;;22.20;69.00;22.40;99161.00;;;;4999741;27;94195;-69
2023/10/14 05:45:35;;;;;;;1.98;1.35;;;22.20;69.70;22.30;99168.00;;;;4991224;27;93108;-67
2023/10/14 05:48:07;;;;;;;2.10;1.48;;;22.10;70.20;22.30;99165.00;;;;5005565;27;93102;-67
2023/10/14 05:50:35;;;;;;;4.40;2.38;;;22.10;70.70;22.20;99173.00;;;;5003909;27;93851;-66
2023/10/14 05:53:01;;;;;;;5.07;2.22;;;22.00;70.90;22.20;99185.00;;;;5000348;27;93585;-67
2023/10/14 05:55:31;;;;;;;4.20;2.10;;;22.00;71.20;22.20;99185.00;;;;4978388;27;92957;-66
2023/10/14 05:58:00;;;;;;;1.67;1.42;;;22.00;71.40;22.20;99181.00;;;;5001664;27;94274;-67
2023/10/14 06:00:29;;;;;;;7.85;2.20;;;22.00;71.80;22.20;99187.00;;;;4999823;27;94779;-67
2023/10/14 06:02:57;;;;;;;6.43;1.80;;;21.90;71.70;22.10;99179.00;;;;5002134;27;92891;-67
2023/10/14 06:05:27;;;;;;;2.03;1.80;;;22.00;71.80;22.10;99179.00;;;;4997770;27;92878;-66
2023/10/14 06:08:05;;;;;;;2.40;1.60;;;21.90;71.90;22.10;99180.00;;;;5001202;27;97636;-67
2023/10/14 06:10:36;;;;;;;1.95;1.60;;;21.90;71.70;22.10;99178.00;;;;5003846;27;94234;-66
2023/10/14 06:13:06;;;;;;;4.43;1.98;;;21.90;71.90;22.10;99192.00;;;;4997231;27;93838;-67
2023/10/14 06:15:40;;;;;;;4.35;2.08;;;21.90;72.00;22.10;99193.00;;;;5000709;27;92941;-67
2023/10/14 06:18:08;;;;;;;1.25;1.13;;;21.90;71.80;22.10;99202.00;;;;5003240;27;93057;-69
2023/10/14 06:20:34;;;;;;;2.03;1.83;;;21.90;71.90;22.10;99198.00;;;;5001676;27;93329;-68
2023/10/14 06:23:01;;;;;;;3.17;1.30;;;21.90;71.90;22.10;99192.00;;;;5001774;27;93951;-67
2023/10/14 06:25:29;;;;;;;2.95;1.80;;;21.90;71.80;22.10;99208.00;;;;5004092;27;92674;-68
2023/10/14 06:27:55;;;;;;;2.13;1.30;;;21.90;71.90;22.10;99218.00;;;;5004316;27;92873;-67
2023/10/14 06:30:21;;;;;;;2.60;1.77;;;21.90;72.00;22.10;99237.00;;;;4999555;27;112279;-68
2023/10/14 06:32:52;;;;;;;2.47;1.67;;;21.90;72.90;21.90;99237.00;;;;5003940;27;94143;-66
2023/10/14 06:35:19;;;;;;;2.33;1.00;;;21.80;75.20;21.40;99252.00;;;;5003854;27;93327;-67
2023/10/14 06:37:47;;;;;;;2.67;1.88;;;21.40;77.00;20.80;99262.00;;;;5005455;27;93096;-67
2023/10/14 06:40:14;;;;;;;2.33;1.67;;;21.00;83.10;20.00;99292.00;;;;4987055;27;94210;-66
2023/10/14 06:42:43;;;;;;;4.47;1.55;;;20.30;86.70;19.30;99341.00;;;;4999644;27;93390;-66
2023/10/14 06:45:18;;;;;;;3.17;2.13;;;19.70;89.40;18.80;99345.00;;;;4999040;27;92881;-66
2023/10/14 06:47:51;;;;;;;3.35;2.15;;;19.10;92.90;18.30;99374.00;;;;5003192;27;93171;-64
2023/10/14 06:50:29;;;;;;;2.05;1.60;;;18.60;95.40;17.90;99384.00;;;;5000791;27;92576;-66
2023/10/14 06:52:59;;;;;;;1.52;0.95;;;18.10;97.60;17.60;99381.00;;;;5001648;27;93053;-65
2023/10/14 06:55:39;;;;;;;2.65;1.70;;;17.70;98.90;17.20;99387.00;;;;5000809;27;93008;-65
2023/10/14 06:58:09;;;;;;;2.15;1.10;;;17.40;99.90;16.90;99386.00;;;;5004361;27;94022;-64
2023/10/14 07:00:38;;;;;;;1.05;0.88;;;17.10;99.90;16.70;99384.00;;;;5000157;27;94041;-64
2023/10/14 07:03:15;;;;;;;2.30;0.68;;;16.80;99.90;16.50;99399.00;;;;5004111;27;93289;-64
2023/10/14 07:05:43;;;;;;;0.43;0.43;;;16.60;99.90;16.30;99403.00;;;;5001955;27;92977;-64
2023/10/14 07:08:11;;;;;;;0.57;0.57;;;16.40;99.90;16.10;99403.00;;;;4997031;27;92893;-63
2023/10/14 07:10:37;;;;;;;1.92;0.90;;;16.20;99.90;16.00;99404.00;;;;5000644;27;94412;-63
2023/10/14 07:13:03;;;;;;;2.60;0.95;;;16.10;99.90;15.90;99417.00;;;;4997779;27;93574;-63
2023/10/14 07:15:34;;;;;;;0.40;0.30;;;15.90;99.90;15.80;99420.00;;;;5002472;27;92321;-63
2023/10/14 07:18:01;;;;;;;1.30;0.50;;;15.80;99.90;15.70;99416.00;;;;5001225;27;99642;-64
2023/10/14 07:20:30;;;;;;;1.02;0.40;;;15.70;99.90;15.70;99419.00;;;;5001620;27;93199;-62
2023/10/14 07:23:03;;;;;;;1.92;0.60;;;15.60;99.90;15.60;99413.00;;;;4998415;27;94290;-62
2023/10/14 07:25:41;;;;;;;0.47;0.47;;;15.60;99.90;15.60;99436.00;;;;5003365;27;92968;-62
2023/10/14 07:28:14;;;;;;;0.40;0.40;;;15.50;99.90;15.50;99458.00;;;;5000067;27;93045;-64
2023/10/14 07:30:48;;;;;;;0.82;0.70;;;15.50;99.90;15.50;99447.00;;;;5002609;27;93342;-63
2023/10/14 07:33:16;;;;;;;0.32;0.32;;;15.40;99.90;15.50;99461.00;;;;4997031;27;94694;-63
2023/10/14 07:35:42;;;;;;;3.38;0.82;;;15.40;99.90;15.40;99456.00;;;;5000636;27;93773;-63
2023/10/14 07:38:10;;;;;;;1.05;0.60;;;15.40;99.90;15.40;99490.00;;;;4999116;27;93045;-63
2023/10/14 07:40:37;;;;;;;0.68;0.57;;;15.40;99.90;15.40;99475.00;;;;5001238;27;93636;-62
2023/10/14 07:43:10;;;;;;;0.95;0.77;;;15.30;99.90;15.40;99484.00;;;;4998577;27;93784;-62
2023/10/14 07:46:03;;;;;;;0.70;0.68;;;15.40;99.90;15.40;99493.00;;;;5001133;27;93232;-63
2023/10/14 07:48:28;;;;;;;0.90;0.88;;;15.40;99.90;15.40;99479.00;;;;5003142;27;94651;-62
2023/10/14 07:50:58;;;;;;;3.30;0.88;;;15.40;99.90;15.50;99496.00;;;;5004473;27;110575;-63
2023/10/14 07:53:30;;;;;;;2.15;0.65;;;15.40;99.90;15.50;99505.00;;;;5004138;27;94250;-64
2023/10/14 07:55:56;;;;;;;0.73;0.73;;;15.40;99.90;15.50;99510.00;;;;5002779;27;93275;-64
2023/10/14 07:58:27;;;;;;;0.43;0.35;;;15.40;99.90;15.50;99530.00;;;;5000638;27;93222;-64
2023/10/14 08:00:55;;;;;;;0.95;0.95;;;15.40;99.90;15.50;99519.00;;;;5000265;27;93784;-64
2023/10/14 08:03:25;;;;;;;1.63;1.10;;;15.40;99.90;15.50;99534.00;;;;5002633;27;93045;-64
2023/10/14 08:05:59;;;;;;;0.45;0.45;;;15.40;99.90;15.40;99550.00;;;;4999681;27;92337;-65
2023/10/14 08:08:30;;;;;;;0.50;0.50;;;15.40;99.90;15.40;99542.00;;;;5006627;27;93345;-65
2023/10/14 08:10:59;;;;;;;0.20;0.20;;;15.30;99.90;15.30;99548.00;;;;5005114;27;93229;-66
2023/10/14 08:13:26;;;;;;;0.50;0.20;;;15.30;99.90;15.20;99553.00;;;;5002736;27;93904;-66
2023/10/14 08:15:54;;;;;;;0.20;0.20;;;15.20;99.90;15.10;99556.00;;;;4980741;27;93619;-66
2023/10/14 08:18:25;;;;;;;0.20;0.20;;;15.10;99.90;15.10;99567.00;;;;4999003;27;92823;-64
2023/10/14 08:20:55;;;;;;;0.82;0.20;;;15.10;99.90;15.00;99591.00;;;;5002811;27;93972;-66
2023/10/14 08:23:26;;;;;;;0.35;0.35;;;15.00;99.90;14.90;99604.00;;;;5004477;27;93006;-65
2023/10/14 08:25:56;;;;;;;0.10;0.10;;;14.90;99.90;14.80;99602.00;;;;5003762;27;93857;-65
2023/10/14 08:28:32;;;;;;;0.00;0.00;;;14.80;99.90;14.70;99606.00;;;;4999707;27;93019;-64
2023/10/14 08:30:59;;;;;;;0.10;0.10;;;14.70;99.90;14.70;99627.00;;;;5000767;27;92357;-65
2023/10/14 08:33:30;;;;;;;0.22;0.22;;;14.60;99.90;14.70;99638.00;;;;4999162;27;93536;-65
2023/10/14 08:35:56;;;;;;;0.47;0.28;;;14.60;99.90;14.60;99633.00;;;;4998893;27;94587;-65
2023/10/14 08:38:23;;;;;;;0.10;0.10;;;14.60;99.90;14.60;99633.00;;;;4999444;27;94095;-65
2023/10/14 08:41:03;;;;;;;0.10;0.10;;;14.60;99.90;14.50;99652.00;;;;4989407;27;95103;-65
2023/10/14 08:43:30;;;;;;;0.60;0.60;;;14.50;99.90;14.40;99656.00;;;;4988003;27;100089;-64
2023/10/14 08:45:59;;;;;;;0.28;0.28;;;14.40;99.90;14.30;99664.00;;;;5000204;27;92959;-65
2023/10/14 08:48:27;;;;;;;1.75;0.63;;;14.30;99.90;14.30;99673.00;;;;5002462;27;92953;-64
2023/10/14 08:50:56;;;;;;;0.20;0.20;;;14.20;99.90;14.20;99679.00;;;;5001039;27;93792;-65
2023/10/14 08:53:23;;;;;;;0.30;0.30;;;14.20;99.90;14.10;99676.00;;;;5001143;27;93757;-65
2023/10/14 08:55:52;;;;;;;0.65;0.65;;;14.10;99.90;14.10;99675.00;;;;5002353;27;102686;-65
2023/10/14 08:58:23;;;;;;;0.25;0.25;;;14.10;99.90;14.00;99689.00;;;;5001740;27;94084;-66
2023/10/14 09:00:52;;;;;;;0.10;0.10;;;14.00;99.90;13.90;99687.00;;;;5001533;27;94991;-66
2023/10/14 09:03:18;;;;;;;0.77;0.30;;;13.90;99.90;13.90;99688.00;;;;4998307;27;95160;-67
2023/10/14 09:05:44;;;;;;;5.10;1.17;;;13.90;99.90;13.90;99694.00;;;;4997862;27;110173;-66
2023/10/14 09:08:16;;;;;;;1.13;0.30;;;13.90;99.90;13.90;99708.00;;;;5000696;27;97154;-65
2023/10/14 09:10:44;;;;;;;0.67;0.50;;;13.90;99.90;13.90;99715.00;;;;5002176;27;93466;-65
2023/10/14 09:13:12;;;;;;;0.30;0.30;;;13.90;99.90;14.00;99727.00;;;;4984907;27;93995;-65
2023/10/14 09:15:41;;;;;;;0.50;0.47;;;13.90;99.90;13.90;99725.00;;;;4997250;27;93397;-66
2023/10/14 09:18:22;;;;;;;4.07;1.02;;;13.90;99.90;13.90;99725.00;;;;4998336;27;93102;-64
2023/10/14 09:20:53;;;;;;;1.60;0.47;;;13.90;99.90;14.00;99730.00;;;;5001253;27;92906;-67
2023/10/14 09:26:03;;;;;;;0.45;0.35;;;14.00;99.90;14.10;99743.00;;;;4999683;27;93243;-67
2023/10/14 09:28:34;;;;;;;1.45;0.60;;;14.10;99.90;14.20;99752.00;;;;4986010;27;93892;-65
2023/10/14 09:31:02;;;;;;;0.40;0.40;;;14.20;99.90;14.30;99757.00;;;;5000475;27;94107;-64
2023/10/14 09:33:31;;;;;;;0.45;0.45;;;14.20;99.90;14.40;99767.00;;;;5001581;27;93287;-66
2023/10/14 09:36:11;;;;;;;0.70;0.40;;;14.30;99.90;14.40;99754.00;;;;4983225;27;94012;-65
2023/10/14 09:38:39;;;;;;;1.95;0.40;;;14.40;99.90;14.40;99768.00;;;;5000924;27;92810;-65
2023/10/14 09:41:10;;;;;;;2.38;0.77;;;14.40;99.90;14.40;99769.00;;;;4996076;27;92898;-66
2023/10/14 09:43:42;;;;;;;0.30;0.30;;;14.30;99.90;14.30;99790.00;;;;5000272;27;93095;-65
2023/10/14 09:46:11;;;;;;;0.63;0.52;;;14.30;99.90;14.30;99803.00;;;;5000249;27;92099;-64
2023/10/14 09:48:38;;;;;;;2.53;0.30;;;14.20;99.90;14.20;99805.00;;;;4998474;27;93063;-66
2023/10/14 09:51:07;;;;;;;0.57;0.15;;;14.20;99.90;14.10;99817.00;;;;5002768;27;94535;-66
2023/10/14 09:53:37;;;;;;;0.57;0.43;;;14.10;99.90;14.10;99811.00;;;;4995478;27;94157;-67
2023/10/14 09:56:04;;;;;;;2.97;0.50;;;14.10;99.90;14.10;99818.00;;;;4997735;27;93223;-65
2023/10/14 09:58:34;;;;;;;0.65;0.25;;;14.10;99.90;14.10;99826.00;;;;4999747;27;93031;-67
2023/10/14 10:01:05;;;;;;;0.63;0.45;;;14.10;99.90;14.10;99826.00;;;;4997172;27;94201;-67
2023/10/14 10:03:53;;;;;;;0.50;0.50;;;14.10;99.90;14.10;99822.00;;;;4984555;27;93237;-66
2023/10/14 10:06:47;;;;;;;0.32;0.32;;;14.10;99.90;14.10;99824.00;;;;4982696;27;93056;-65
2023/10/14 10:09:47;;;;;;;0.30;0.30;;;14.10;99.90;14.30;99826.00;;;;4985786;27;93292;-66
2023/10/14 10:12:16;;;;;;;0.88;0.65;;;14.20;99.90;14.70;99826.00;;;;4997273;27;92986;-68
2023/10/14 10:14:44;;;;;;;2.30;0.75;;;14.50;99.90;15.20;99832.00;;;;5001486;27;94566;-67
2023/10/14 10:17:16;;;;;;;1.30;0.90;;;14.90;99.90;15.50;99841.00;;;;4988188;27;93192;-67
2023/10/14 10:20:16;;;;;;;0.52;0.43;;;15.30;99.90;15.90;99843.00;;;;5000454;27;95097;-66
2023/10/14 10:22:52;;;;;;;6.07;0.63;;;15.60;99.90;16.00;99849.00;;;;5001714;27;94015;-68
2023/10/14 10:25:21;;;;;;;1.27;1.00;;;15.80;99.90;16.00;99861.00;;;;5004121;27;93363;-67
2023/10/14 10:27:49;;;;;;;2.58;0.52;;;15.90;99.90;16.00;99867.00;;;;5007230;27;93129;-65
2023/10/14 10:30:17;;;;;;;0.75;0.60;;;15.90;99.90;15.90;99867.00;;;;5003793;27;92852;-66
2023/10/14 10:32:46;;;;;;;1.73;0.88;;;15.90;99.90;16.00;99856.00;;;;5003615;27;93300;-66
2023/10/14 10:35:14;;;;;;;4.18;0.70;;;16.10;99.90;16.40;99862.00;;;;5004868;27;93332;-64
2023/10/14 10:37:49;;;;;;;1.42;0.70;;;16.20;99.90;16.80;99846.00;;;;4992185;27;99839;-64
2023/10/14 10:40:27;;;;;;;2.95;0.70;;;16.50;99.90;17.20;99855.00;;;;5005079;27;92978;-65
2023/10/14 10:43:06;;;;;;;1.60;0.40;;;16.90;99.90;17.70;99861.00;;;;5004791;27;93738;-64
2023/10/14 10:45:42;;;;;;;3.70;1.05;;;17.40;99.90;18.30;99857.00;;;;5000695;27;93992;-65
2023/10/14 10:48:14;;;;;;;2.38;0.80;;;17.90;99.90;18.70;99853.00;;;;5000278;27;93838;-65
2023/10/14 10:50:41;;;;;;;3.50;0.40;;;18.40;99.90;19.10;99856.00;;;;5003597;27;93045;-65
2023/10/14 10:53:07;;;;;;;2.67;1.05;;;18.70;99.90;19.40;99863.00;;;;5002131;27;103688;-65
2023/10/14 10:55:40;;;;;;;1.55;1.45;;;19.00;99.90;19.60;99868.00;;;;5003832;27;92946;-67
2023/10/14 10:58:14;;;;;;;0.55;0.55;;;18.50;99.90;20.00;99876.00;;;;4991752;27;93429;-66
2023/10/14 11:00:46;;;;;;;1.95;0.40;;;19.60;99.90;20.40;99880.00;;;;4992745;27;93034;-66
2023/10/14 11:03:16;;;;;;;2.85;0.63;;;20.00;99.90;20.70;99887.00;;;;5006904;27;93026;-66
2023/10/14 11:05:44;;;;;;;1.48;0.45;;;20.20;99.90;20.90;99872.00;;;;5004145;27;93306;-67
2023/10/14 11:08:11;;;;;;;0.52;0.52;;;20.60;99.90;21.20;99875.00;;;;4985237;27;93758;-67
2023/10/14 11:10:42;;;;;;;2.42;0.95;;;20.80;99.90;21.40;99872.00;;;;4989487;27;94664;-68
2023/10/14 11:13:17;;;;;;;1.58;0.57;;;21.10;97.80;21.50;99878.00;;;;4983754;27;93585;-68
2023/10/14 11:15:53;;;;;;;0.69;0.53;;;21.20;96.80;21.80;99884.00;;;;4975924;27;10001723;-68
2023/10/14 11:18:19;;;;;;;0.47;0.47;;;21.40;96.50;22.00;99890.00;;;;4447413;27;10000554;-67
2023/10/14 11:20:46;;;;;;;0.52;0.50;;;21.70;96.10;22.40;99889.00;;;;4981889;27;93205;-66
2023/10/14 11:23:14;;;;;;;3.35;0.90;;;22.10;95.70;22.60;99887.00;;;;4973238;27;93079;-66
2023/10/14 11:25:46;;;;;;;0.38;0.38;;;23.30;94.70;22.90;99890.00;;;;4984021;27;92948;-68
2023/10/14 11:28:14;;;;;;;1.25;0.55;;;23.50;92.90;23.10;99885.00;;;;4988441;27;96860;-66
2023/10/14 11:30:49;;;;;;;0.63;0.47;;;22.70;91.50;23.20;99890.00;;;;5007918;27;93114;-66
2023/10/14 11:33:18;;;;;;;0.55;0.40;;;22.80;91.10;23.40;99889.00;;;;5000546;27;92993;-67